Current Weather

Heathrow

Heathrow, United Kingdom (EGLL)

Report from: Monday, September 26, 2022 4:20 AM BST
Current time: Monday, September 26, 2022 5:01 AM BST

Nearby weather
Weather history
Weather forecast

Present weatherLight rain, rain
Temperature11.0°C (51.8°F)
Dew point9.0°C (48.2°F)
Winds 11 kts (5.7 m/s, 12.7 mph) Southwest (230°)
Visibility5.6 mi. (9 km)
Clouds Ceiling: Broken clouds 1,200 ft. (366 m)
Broken clouds 1,700 ft. (518 m)
Overcast 3,500 ft. (1,067 m)
Altimeter29.65 in.Hg (1004 mB)
Relative humidity87 %
Density altitude1 ft. (0 m)
Remarks Fully automated report
Corrected report
Flight conditions Marginal Visual Meteorological Conditions
Raw dataCOR EGLL 260320Z AUTO 23011KT 9000 -RA BKN017/// OVC035/// //////TCU 11/09 Q1004 TEMPO 4500 RA BKN012
An error has occurred. This application may no longer respond until reloaded. Reload 🗙